sensor_id;sensor_type;location;lat;lon;timestamp;P1;durP1;ratioP1;P2;durP2;ratioP2
14316;SDS011;7242;50.858;6.586;2024-03-25T00:02:24;14.27;;;5.17;;
14316;SDS011;7242;50.858;6.586;2024-03-25T00:05:31;14.97;;;4.90;;
14316;SDS011;7242;50.858;6.586;2024-03-25T00:08:35;10.37;;;4.70;;
14316;SDS011;7242;50.858;6.586;2024-03-25T00:11:40;15.30;;;5.33;;
14316;SDS011;7242;50.858;6.586;2024-03-25T00:14:42;15.20;;;5.23;;
14316;SDS011;7242;50.858;6.586;2024-03-25T00:17:44;13.37;;;4.93;;
14316;SDS011;7242;50.858;6.586;2024-03-25T00:20:46;15.70;;;4.97;;
14316;SDS011;7242;50.858;6.586;2024-03-25T00:23:47;15.57;;;4.57;;
14316;SDS011;7242;50.858;6.586;2024-03-25T00:26:49;14.07;;;4.80;;
14316;SDS011;7242;50.858;6.586;2024-03-25T00:29:53;19.00;;;5.00;;
14316;SDS011;7242;50.858;6.586;2024-03-25T00:32:54;14.03;;;4.80;;
14316;SDS011;7242;50.858;6.586;2024-03-25T00:35:55;17.07;;;4.10;;
14316;SDS011;7242;50.858;6.586;2024-03-25T00:38:57;19.03;;;4.27;;
14316;SDS011;7242;50.858;6.586;2024-03-25T00:41:58;12.40;;;4.10;;
14316;SDS011;7242;50.858;6.586;2024-03-25T00:45:04;13.53;;;4.10;;
14316;SDS011;7242;50.858;6.586;2024-03-25T00:48:08;17.77;;;4.60;;
14316;SDS011;7242;50.858;6.586;2024-03-25T00:51:10;15.60;;;4.27;;
14316;SDS011;7242;50.858;6.586;2024-03-25T00:54:12;13.43;;;4.27;;
14316;SDS011;7242;50.858;6.586;2024-03-25T00:57:13;14.13;;;4.30;;
14316;SDS011;7242;50.858;6.586;2024-03-25T01:00:23;14.43;;;4.70;;
14316;SDS011;7242;50.858;6.586;2024-03-25T01:03:24;11.93;;;4.10;;
14316;SDS011;7242;50.858;6.586;2024-03-25T01:06:26;16.17;;;4.30;;
14316;SDS011;7242;50.858;6.586;2024-03-25T01:09:36;18.70;;;4.80;;
14316;SDS011;7242;50.858;6.586;2024-03-25T01:12:37;19.07;;;4.43;;
14316;SDS011;7242;50.858;6.586;2024-03-25T01:15:44;14.57;;;4.50;;
14316;SDS011;7242;50.858;6.586;2024-03-25T01:19:13;15.27;;;4.47;;
14316;SDS011;7242;50.858;6.586;2024-03-25T01:22:25;14.63;;;4.37;;
14316;SDS011;7242;50.858;6.586;2024-03-25T01:25:33;13.33;;;3.97;;
14316;SDS011;7242;50.858;6.586;2024-03-25T01:28:37;17.17;;;4.33;;
14316;SDS011;7242;50.858;6.586;2024-03-25T01:31:44;15.50;;;4.10;;
14316;SDS011;7242;50.858;6.586;2024-03-25T01:35:03;13.63;;;3.90;;
14316;SDS011;7242;50.858;6.586;2024-03-25T01:38:20;12.00;;;4.20;;
14316;SDS011;7242;50.858;6.586;2024-03-25T01:41:32;16.13;;;4.40;;
14316;SDS011;7242;50.858;6.586;2024-03-25T01:44:54;18.33;;;4.30;;
14316;SDS011;7242;50.858;6.586;2024-03-25T01:47:58;15.33;;;4.70;;
14316;SDS011;7242;50.858;6.586;2024-03-25T01:51:17;15.23;;;4.50;;
14316;SDS011;7242;50.858;6.586;2024-03-25T01:54:33;19.13;;;4.60;;
14316;SDS011;7242;50.858;6.586;2024-03-25T01:57:40;15.50;;;4.37;;
14316;SDS011;7242;50.858;6.586;2024-03-25T02:00:46;17.77;;;4.80;;
14316;SDS011;7242;50.858;6.586;2024-03-25T02:03:48;15.13;;;4.03;;
14316;SDS011;7242;50.858;6.586;2024-03-25T02:06:54;14.63;;;4.40;;
14316;SDS011;7242;50.858;6.586;2024-03-25T02:10:01;15.83;;;4.37;;
14316;SDS011;7242;50.858;6.586;2024-03-25T02:13:10;15.27;;;4.60;;
14316;SDS011;7242;50.858;6.586;2024-03-25T02:16:18;16.33;;;5.13;;
14316;SDS011;7242;50.858;6.586;2024-03-25T02:19:22;15.20;;;4.53;;
14316;SDS011;7242;50.858;6.586;2024-03-25T02:22:33;16.17;;;5.07;;
14316;SDS011;7242;50.858;6.586;2024-03-25T02:25:42;16.57;;;4.80;;
14316;SDS011;7242;50.858;6.586;2024-03-25T02:28:50;13.70;;;4.60;;
14316;SDS011;7242;50.858;6.586;2024-03-25T02:31:56;16.37;;;4.90;;
14316;SDS011;7242;50.858;6.586;2024-03-25T02:35:02;15.23;;;4.40;;
14316;SDS011;7242;50.858;6.586;2024-03-25T02:38:22;13.20;;;4.47;;
14316;SDS011;7242;50.858;6.586;2024-03-25T02:41:29;13.70;;;4.10;;
14316;SDS011;7242;50.858;6.586;2024-03-25T02:44:35;15.50;;;4.73;;
14316;SDS011;7242;50.858;6.586;2024-03-25T02:47:46;13.07;;;4.43;;
14316;SDS011;7242;50.858;6.586;2024-03-25T02:50:53;16.30;;;4.87;;
14316;SDS011;7242;50.858;6.586;2024-03-25T02:54:03;20.40;;;4.83;;
14316;SDS011;7242;50.858;6.586;2024-03-25T02:57:07;15.57;;;4.77;;
14316;SDS011;7242;50.858;6.586;2024-03-25T03:00:12;13.23;;;4.30;;
14316;SDS011;7242;50.858;6.586;2024-03-25T03:03:27;12.07;;;4.80;;
14316;SDS011;7242;50.858;6.586;2024-03-25T03:06:34;12.63;;;4.97;;
14316;SDS011;7242;50.858;6.586;2024-03-25T03:09:37;15.67;;;4.30;;
14316;SDS011;7242;50.858;6.586;2024-03-25T03:12:41;15.13;;;5.10;;
14316;SDS011;7242;50.858;6.586;2024-03-25T03:15:45;13.80;;;5.30;;
14316;SDS011;7242;50.858;6.586;2024-03-25T03:18:47;19.57;;;5.80;;
14316;SDS011;7242;50.858;6.586;2024-03-25T03:22:02;14.33;;;5.00;;
14316;SDS011;7242;50.858;6.586;2024-03-25T03:25:13;16.80;;;4.93;;
14316;SDS011;7242;50.858;6.586;2024-03-25T03:28:17;22.77;;;5.30;;
14316;SDS011;7242;50.858;6.586;2024-03-25T03:31:26;14.20;;;4.90;;
14316;SDS011;7242;50.858;6.586;2024-03-25T03:34:34;13.73;;;5.17;;
14316;SDS011;7242;50.858;6.586;2024-03-25T03:37:38;18.43;;;5.17;;
14316;SDS011;7242;50.858;6.586;2024-03-25T03:40:59;13.83;;;5.60;;
14316;SDS011;7242;50.858;6.586;2024-03-25T03:44:03;15.57;;;5.63;;
14316;SDS011;7242;50.858;6.586;2024-03-25T03:47:09;16.00;;;5.57;;
14316;SDS011;7242;50.858;6.586;2024-03-25T03:50:15;13.40;;;5.20;;
14316;SDS011;7242;50.858;6.586;2024-03-25T03:53:16;15.07;;;5.63;;
14316;SDS011;7242;50.858;6.586;2024-03-25T03:56:20;11.17;;;4.90;;
14316;SDS011;7242;50.858;6.586;2024-03-25T03:59:21;11.97;;;5.13;;
14316;SDS011;7242;50.858;6.586;2024-03-25T04:02:32;13.37;;;5.03;;
14316;SDS011;7242;50.858;6.586;2024-03-25T04:05:42;13.80;;;5.27;;
14316;SDS011;7242;50.858;6.586;2024-03-25T04:08:51;12.37;;;4.70;;
14316;SDS011;7242;50.858;6.586;2024-03-25T04:11:52;13.57;;;4.63;;
14316;SDS011;7242;50.858;6.586;2024-03-25T04:14:59;14.60;;;5.00;;
14316;SDS011;7242;50.858;6.586;2024-03-25T04:18:03;10.40;;;4.97;;
14316;SDS011;7242;50.858;6.586;2024-03-25T04:21:21;10.33;;;4.60;;
14316;SDS011;7242;50.858;6.586;2024-03-25T04:24:36;13.07;;;4.70;;
14316;SDS011;7242;50.858;6.586;2024-03-25T04:27:45;10.07;;;4.27;;
14316;SDS011;7242;50.858;6.586;2024-03-25T04:30:57;9.33;;;4.80;;
14316;SDS011;7242;50.858;6.586;2024-03-25T04:34:06;12.37;;;5.00;;
14316;SDS011;7242;50.858;6.586;2024-03-25T04:37:20;12.60;;;5.20;;
14316;SDS011;7242;50.858;6.586;2024-03-25T04:40:26;15.30;;;5.67;;
14316;SDS011;7242;50.858;6.586;2024-03-25T04:43:33;10.27;;;4.90;;
14316;SDS011;7242;50.858;6.586;2024-03-25T04:46:39;14.83;;;5.27;;
14316;SDS011;7242;50.858;6.586;2024-03-25T04:49:46;11.30;;;4.97;;
14316;SDS011;7242;50.858;6.586;2024-03-25T04:52:52;10.80;;;4.90;;
14316;SDS011;7242;50.858;6.586;2024-03-25T04:56:01;11.73;;;4.73;;
14316;SDS011;7242;50.858;6.586;2024-03-25T04:59:04;8.83;;;4.60;;
14316;SDS011;7242;50.858;6.586;2024-03-25T05:02:15;8.40;;;4.47;;
14316;SDS011;7242;50.858;6.586;2024-03-25T05:05:24;7.40;;;4.93;;
14316;SDS011;7242;50.858;6.586;2024-03-25T05:08:38;10.60;;;4.60;;
14316;SDS011;7242;50.858;6.586;2024-03-25T05:11:39;11.80;;;4.97;;
14316;SDS011;7242;50.858;6.586;2024-03-25T05:14:47;10.73;;;4.90;;
14316;SDS011;7242;50.858;6.586;2024-03-25T05:17:53;12.37;;;5.27;;
14316;SDS011;7242;50.858;6.586;2024-03-25T05:21:13;11.60;;;4.87;;
14316;SDS011;7242;50.858;6.586;2024-03-25T05:24:19;10.90;;;5.00;;
14316;SDS011;7242;50.858;6.586;2024-03-25T05:27:23;13.03;;;5.20;;
14316;SDS011;7242;50.858;6.586;2024-03-25T05:30:32;13.80;;;5.23;;
14316;SDS011;7242;50.858;6.586;2024-03-25T05:33:36;10.30;;;5.27;;
14316;SDS011;7242;50.858;6.586;2024-03-25T05:36:41;10.77;;;5.00;;
14316;SDS011;7242;50.858;6.586;2024-03-25T05:39:48;11.50;;;5.13;;
14316;SDS011;7242;50.858;6.586;2024-03-25T05:43:18;10.53;;;4.50;;
14316;SDS011;7242;50.858;6.586;2024-03-25T05:46:23;10.47;;;4.70;;
14316;SDS011;7242;50.858;6.586;2024-03-25T05:49:37;12.33;;;4.73;;
14316;SDS011;7242;50.858;6.586;2024-03-25T05:52:40;7.63;;;4.33;;
14316;SDS011;7242;50.858;6.586;2024-03-25T05:56:11;10.37;;;3.43;;
14316;SDS011;7242;50.858;6.586;2024-03-25T05:59:15;9.83;;;3.73;;
14316;SDS011;7242;50.858;6.586;2024-03-25T06:02:29;10.37;;;3.37;;
14316;SDS011;7242;50.858;6.586;2024-03-25T06:05:40;7.80;;;3.73;;
14316;SDS011;7242;50.858;6.586;2024-03-25T06:08:53;7.43;;;2.90;;
14316;SDS011;7242;50.858;6.586;2024-03-25T06:11:57;8.63;;;2.63;;
14316;SDS011;7242;50.858;6.586;2024-03-25T06:15:09;5.10;;;2.53;;
14316;SDS011;7242;50.858;6.586;2024-03-25T06:18:11;8.43;;;2.80;;
14316;SDS011;7242;50.858;6.586;2024-03-25T06:21:23;6.83;;;2.80;;
14316;SDS011;7242;50.858;6.586;2024-03-25T06:24:30;7.27;;;2.60;;
14316;SDS011;7242;50.858;6.586;2024-03-25T06:27:39;6.77;;;2.80;;
14316;SDS011;7242;50.858;6.586;2024-03-25T06:30:58;6.97;;;2.87;;
14316;SDS011;7242;50.858;6.586;2024-03-25T06:34:32;7.13;;;2.60;;
14316;SDS011;7242;50.858;6.586;2024-03-25T06:37:57;5.73;;;2.80;;
14316;SDS011;7242;50.858;6.586;2024-03-25T06:41:13;5.70;;;2.50;;
14316;SDS011;7242;50.858;6.586;2024-03-25T06:44:17;6.30;;;2.90;;
14316;SDS011;7242;50.858;6.586;2024-03-25T06:47:27;8.17;;;2.80;;
14316;SDS011;7242;50.858;6.586;2024-03-25T06:50:31;7.10;;;2.47;;
14316;SDS011;7242;50.858;6.586;2024-03-25T06:53:32;6.73;;;2.77;;
14316;SDS011;7242;50.858;6.586;2024-03-25T06:56:38;8.43;;;3.03;;
14316;SDS011;7242;50.858;6.586;2024-03-25T06:59:52;6.77;;;2.60;;
14316;SDS011;7242;50.858;6.586;2024-03-25T07:03:05;6.97;;;2.57;;
14316;SDS011;7242;50.858;6.586;2024-03-25T07:06:22;7.83;;;3.00;;
14316;SDS011;7242;50.858;6.586;2024-03-25T07:09:28;6.90;;;3.00;;
14316;SDS011;7242;50.858;6.586;2024-03-25T07:12:44;7.50;;;2.67;;
14316;SDS011;7242;50.858;6.586;2024-03-25T07:15:53;6.73;;;3.40;;
14316;SDS011;7242;50.858;6.586;2024-03-25T07:19:10;5.97;;;3.80;;
14316;SDS011;7242;50.858;6.586;2024-03-25T07:22:12;5.57;;;3.73;;
14316;SDS011;7242;50.858;6.586;2024-03-25T07:25:16;6.40;;;3.53;;
14316;SDS011;7242;50.858;6.586;2024-03-25T07:28:21;5.13;;;3.43;;
14316;SDS011;7242;50.858;6.586;2024-03-25T07:31:25;6.50;;;3.20;;
14316;SDS011;7242;50.858;6.586;2024-03-25T07:34:29;5.07;;;3.07;;
14316;SDS011;7242;50.858;6.586;2024-03-25T07:37:39;6.63;;;3.40;;
14316;SDS011;7242;50.858;6.586;2024-03-25T07:40:41;7.00;;;3.33;;
14316;SDS011;7242;50.858;6.586;2024-03-25T07:43:42;7.67;;;3.70;;
14316;SDS011;7242;50.858;6.586;2024-03-25T07:46:46;6.17;;;3.10;;
14316;SDS011;7242;50.858;6.586;2024-03-25T07:49:47;6.47;;;2.80;;
14316;SDS011;7242;50.858;6.586;2024-03-25T07:52:50;6.50;;;2.87;;
14316;SDS011;7242;50.858;6.586;2024-03-25T07:55:51;6.53;;;3.40;;
14316;SDS011;7242;50.858;6.586;2024-03-25T07:58:56;7.13;;;3.10;;
14316;SDS011;7242;50.858;6.586;2024-03-25T08:02:00;6.43;;;2.90;;
14316;SDS011;7242;50.858;6.586;2024-03-25T08:05:05;5.40;;;3.07;;
14316;SDS011;7242;50.858;6.586;2024-03-25T08:08:07;6.30;;;2.57;;
14316;SDS011;7242;50.858;6.586;2024-03-25T08:11:11;6.77;;;3.00;;
14316;SDS011;7242;50.858;6.586;2024-03-25T08:14:12;5.80;;;3.00;;
14316;SDS011;7242;50.858;6.586;2024-03-25T08:17:14;6.97;;;3.53;;
14316;SDS011;7242;50.858;6.586;2024-03-25T08:20:16;6.77;;;3.53;;
14316;SDS011;7242;50.858;6.586;2024-03-25T08:23:18;7.03;;;3.40;;
14316;SDS011;7242;50.858;6.586;2024-03-25T08:26:19;7.63;;;3.40;;
14316;SDS011;7242;50.858;6.586;2024-03-25T08:29:21;10.63;;;4.07;;
14316;SDS011;7242;50.858;6.586;2024-03-25T08:32:27;7.87;;;4.03;;
14316;SDS011;7242;50.858;6.586;2024-03-25T08:35:33;5.80;;;3.50;;
14316;SDS011;7242;50.858;6.586;2024-03-25T08:38:49;9.33;;;4.90;;
14316;SDS011;7242;50.858;6.586;2024-03-25T08:41:57;10.20;;;4.60;;
14316;SDS011;7242;50.858;6.586;2024-03-25T08:45:01;12.90;;;5.10;;
14316;SDS011;7242;50.858;6.586;2024-03-25T08:48:03;11.33;;;5.30;;
14316;SDS011;7242;50.858;6.586;2024-03-25T08:51:07;11.87;;;5.13;;
14316;SDS011;7242;50.858;6.586;2024-03-25T08:54:13;8.40;;;4.90;;
14316;SDS011;7242;50.858;6.586;2024-03-25T08:57:17;11.53;;;5.20;;
14316;SDS011;7242;50.858;6.586;2024-03-25T09:00:21;11.07;;;5.50;;
14316;SDS011;7242;50.858;6.586;2024-03-25T09:03:26;11.00;;;5.23;;
14316;SDS011;7242;50.858;6.586;2024-03-25T09:06:30;13.57;;;4.83;;
14316;SDS011;7242;50.858;6.586;2024-03-25T09:09:32;17.27;;;4.47;;
14316;SDS011;7242;50.858;6.586;2024-03-25T09:12:55;9.83;;;3.80;;
14316;SDS011;7242;50.858;6.586;2024-03-25T09:15:59;10.10;;;4.00;;
14316;SDS011;7242;50.858;6.586;2024-03-25T09:19:01;11.37;;;3.77;;
14316;SDS011;7242;50.858;6.586;2024-03-25T09:22:06;11.13;;;3.90;;
14316;SDS011;7242;50.858;6.586;2024-03-25T09:25:10;13.37;;;4.13;;
14316;SDS011;7242;50.858;6.586;2024-03-25T09:28:11;13.37;;;4.93;;
14316;SDS011;7242;50.858;6.586;2024-03-25T09:31:14;10.77;;;4.60;;
14316;SDS011;7242;50.858;6.586;2024-03-25T09:34:16;12.63;;;4.50;;
14316;SDS011;7242;50.858;6.586;2024-03-25T09:37:18;10.07;;;4.47;;
14316;SDS011;7242;50.858;6.586;2024-03-25T09:40:20;10.00;;;4.63;;
14316;SDS011;7242;50.858;6.586;2024-03-25T09:43:23;11.87;;;4.97;;
14316;SDS011;7242;50.858;6.586;2024-03-25T09:46:32;11.67;;;4.80;;
14316;SDS011;7242;50.858;6.586;2024-03-25T09:49:37;12.03;;;4.40;;
14316;SDS011;7242;50.858;6.586;2024-03-25T09:52:42;11.53;;;3.70;;
14316;SDS011;7242;50.858;6.586;2024-03-25T09:55:46;10.00;;;3.80;;
14316;SDS011;7242;50.858;6.586;2024-03-25T09:58:48;9.93;;;4.20;;
14316;SDS011;7242;50.858;6.586;2024-03-25T10:01:51;10.10;;;3.80;;
14316;SDS011;7242;50.858;6.586;2024-03-25T10:04:55;11.50;;;3.57;;
14316;SDS011;7242;50.858;6.586;2024-03-25T10:07:57;10.27;;;3.60;;
14316;SDS011;7242;50.858;6.586;2024-03-25T10:10:58;7.63;;;2.97;;
14316;SDS011;7242;50.858;6.586;2024-03-25T10:14:06;8.97;;;3.43;;
14316;SDS011;7242;50.858;6.586;2024-03-25T10:17:09;7.83;;;3.20;;
14316;SDS011;7242;50.858;6.586;2024-03-25T10:20:15;10.23;;;3.20;;
14316;SDS011;7242;50.858;6.586;2024-03-25T10:23:23;7.30;;;2.87;;
14316;SDS011;7242;50.858;6.586;2024-03-25T10:26:28;6.77;;;3.27;;
14316;SDS011;7242;50.858;6.586;2024-03-25T10:29:35;6.43;;;2.93;;
14316;SDS011;7242;50.858;6.586;2024-03-25T10:32:39;5.77;;;2.47;;
14316;SDS011;7242;50.858;6.586;2024-03-25T10:35:43;6.47;;;2.60;;
14316;SDS011;7242;50.858;6.586;2024-03-25T10:38:46;11.77;;;2.90;;
14316;SDS011;7242;50.858;6.586;2024-03-25T10:41:50;5.90;;;2.40;;
14316;SDS011;7242;50.858;6.586;2024-03-25T10:44:52;3.03;;;2.13;;
14316;SDS011;7242;50.858;6.586;2024-03-25T10:47:54;6.27;;;2.30;;
14316;SDS011;7242;50.858;6.586;2024-03-25T10:50:58;3.97;;;2.20;;
14316;SDS011;7242;50.858;6.586;2024-03-25T10:54:02;6.33;;;2.33;;
14316;SDS011;7242;50.858;6.586;2024-03-25T10:57:07;5.20;;;2.50;;
14316;SDS011;7242;50.858;6.586;2024-03-25T11:00:10;5.30;;;2.50;;
14316;SDS011;7242;50.858;6.586;2024-03-25T11:03:18;6.67;;;2.70;;
14316;SDS011;7242;50.858;6.586;2024-03-25T11:06:21;5.60;;;2.50;;
14316;SDS011;7242;50.858;6.586;2024-03-25T11:09:24;6.13;;;2.63;;
14316;SDS011;7242;50.858;6.586;2024-03-25T11:12:31;4.97;;;2.53;;
14316;SDS011;7242;50.858;6.586;2024-03-25T11:15:42;6.83;;;2.73;;
14316;SDS011;7242;50.858;6.586;2024-03-25T11:18:50;5.60;;;2.30;;
14316;SDS011;7242;50.858;6.586;2024-03-25T11:21:52;3.33;;;1.97;;
14316;SDS011;7242;50.858;6.586;2024-03-25T11:24:54;9.33;;;2.80;;
14316;SDS011;7242;50.858;6.586;2024-03-25T11:27:56;5.47;;;2.50;;
14316;SDS011;7242;50.858;6.586;2024-03-25T11:30:58;5.33;;;2.40;;
14316;SDS011;7242;50.858;6.586;2024-03-25T11:34:04;3.07;;;1.97;;
14316;SDS011;7242;50.858;6.586;2024-03-25T11:37:06;4.80;;;2.30;;
14316;SDS011;7242;50.858;6.586;2024-03-25T11:40:14;5.50;;;2.53;;
14316;SDS011;7242;50.858;6.586;2024-03-25T11:43:19;2.80;;;2.07;;
14316;SDS011;7242;50.858;6.586;2024-03-25T11:46:24;5.07;;;2.10;;
14316;SDS011;7242;50.858;6.586;2024-03-25T11:49:26;5.37;;;2.00;;
14316;SDS011;7242;50.858;6.586;2024-03-25T11:52:31;4.37;;;2.00;;
14316;SDS011;7242;50.858;6.586;2024-03-25T11:55:32;5.90;;;2.30;;
14316;SDS011;7242;50.858;6.586;2024-03-25T11:58:35;5.20;;;2.30;;
14316;SDS011;7242;50.858;6.586;2024-03-25T12:01:37;5.90;;;2.33;;
14316;SDS011;7242;50.858;6.586;2024-03-25T12:04:45;4.53;;;2.30;;
14316;SDS011;7242;50.858;6.586;2024-03-25T12:07:46;4.43;;;2.27;;
14316;SDS011;7242;50.858;6.586;2024-03-25T12:10:51;5.03;;;2.17;;
14316;SDS011;7242;50.858;6.586;2024-03-25T12:14:11;3.13;;;2.17;;
14316;SDS011;7242;50.858;6.586;2024-03-25T12:17:13;6.33;;;2.10;;
14316;SDS011;7242;50.858;6.586;2024-03-25T12:20:19;4.67;;;2.30;;
14316;SDS011;7242;50.858;6.586;2024-03-25T12:23:21;4.10;;;2.30;;
14316;SDS011;7242;50.858;6.586;2024-03-25T12:26:23;3.87;;;2.00;;
14316;SDS011;7242;50.858;6.586;2024-03-25T12:29:24;4.53;;;2.43;;
14316;SDS011;7242;50.858;6.586;2024-03-25T12:32:36;4.33;;;2.53;;
14316;SDS011;7242;50.858;6.586;2024-03-25T12:35:38;3.90;;;2.20;;
14316;SDS011;7242;50.858;6.586;2024-03-25T12:38:40;4.53;;;2.00;;
14316;SDS011;7242;50.858;6.586;2024-03-25T12:41:44;4.53;;;2.20;;
14316;SDS011;7242;50.858;6.586;2024-03-25T12:44:45;5.00;;;2.50;;
14316;SDS011;7242;50.858;6.586;2024-03-25T12:47:47;3.13;;;2.30;;
14316;SDS011;7242;50.858;6.586;2024-03-25T12:50:49;5.53;;;2.40;;
14316;SDS011;7242;50.858;6.586;2024-03-25T12:53:51;3.07;;;2.00;;
14316;SDS011;7242;50.858;6.586;2024-03-25T12:56:52;5.13;;;2.47;;
14316;SDS011;7242;50.858;6.586;2024-03-25T12:59:56;3.93;;;2.27;;
14316;SDS011;7242;50.858;6.586;2024-03-25T13:02:57;5.63;;;2.40;;
14316;SDS011;7242;50.858;6.586;2024-03-25T13:06:01;4.30;;;2.10;;
14316;SDS011;7242;50.858;6.586;2024-03-25T13:09:02;3.33;;;2.27;;
14316;SDS011;7242;50.858;6.586;2024-03-25T13:12:04;3.40;;;2.17;;
14316;SDS011;7242;50.858;6.586;2024-03-25T13:15:06;3.07;;;2.00;;
14316;SDS011;7242;50.858;6.586;2024-03-25T13:18:09;6.17;;;2.17;;
14316;SDS011;7242;50.858;6.586;2024-03-25T13:21:11;5.37;;;2.23;;
14316;SDS011;7242;50.858;6.586;2024-03-25T13:24:13;3.57;;;1.93;;
14316;SDS011;7242;50.858;6.586;2024-03-25T13:27:15;4.80;;;2.30;;
14316;SDS011;7242;50.858;6.586;2024-03-25T13:30:16;4.87;;;2.20;;
14316;SDS011;7242;50.858;6.586;2024-03-25T13:33:18;6.50;;;2.60;;
14316;SDS011;7242;50.858;6.586;2024-03-25T13:36:19;4.23;;;2.17;;
14316;SDS011;7242;50.858;6.586;2024-03-25T13:39:21;4.30;;;2.00;;
14316;SDS011;7242;50.858;6.586;2024-03-25T13:42:25;6.33;;;2.50;;
14316;SDS011;7242;50.858;6.586;2024-03-25T13:45:27;4.33;;;2.20;;
14316;SDS011;7242;50.858;6.586;2024-03-25T13:48:29;3.47;;;1.90;;
14316;SDS011;7242;50.858;6.586;2024-03-25T13:51:30;4.13;;;2.30;;
14316;SDS011;7242;50.858;6.586;2024-03-25T13:54:32;4.33;;;2.07;;
14316;SDS011;7242;50.858;6.586;2024-03-25T13:57:37;3.13;;;2.17;;
14316;SDS011;7242;50.858;6.586;2024-03-25T14:00:39;3.20;;;2.10;;
14316;SDS011;7242;50.858;6.586;2024-03-25T14:03:40;2.80;;;1.90;;
14316;SDS011;7242;50.858;6.586;2024-03-25T14:06:42;5.10;;;1.90;;
14316;SDS011;7242;50.858;6.586;2024-03-25T14:09:46;2.93;;;2.00;;
14316;SDS011;7242;50.858;6.586;2024-03-25T14:12:48;5.40;;;2.10;;
14316;SDS011;7242;50.858;6.586;2024-03-25T14:15:50;3.53;;;1.63;;
14316;SDS011;7242;50.858;6.586;2024-03-25T14:18:54;3.00;;;2.10;;
14316;SDS011;7242;50.858;6.586;2024-03-25T14:22:14;4.37;;;2.10;;
14316;SDS011;7242;50.858;6.586;2024-03-25T14:25:16;8.70;;;2.17;;
14316;SDS011;7242;50.858;6.586;2024-03-25T14:28:17;2.97;;;1.70;;
14316;SDS011;7242;50.858;6.586;2024-03-25T14:31:20;4.80;;;1.87;;
14316;SDS011;7242;50.858;6.586;2024-03-25T14:34:21;3.90;;;1.73;;
14316;SDS011;7242;50.858;6.586;2024-03-25T14:37:23;3.77;;;2.00;;
14316;SDS011;7242;50.858;6.586;2024-03-25T14:40:25;2.37;;;1.67;;
14316;SDS011;7242;50.858;6.586;2024-03-25T14:43:27;3.13;;;1.83;;
14316;SDS011;7242;50.858;6.586;2024-03-25T14:46:28;3.80;;;1.67;;
14316;SDS011;7242;50.858;6.586;2024-03-25T14:49:30;4.03;;;1.97;;
14316;SDS011;7242;50.858;6.586;2024-03-25T14:52:34;2.97;;;1.70;;
14316;SDS011;7242;50.858;6.586;2024-03-25T14:55:37;3.00;;;1.90;;
14316;SDS011;7242;50.858;6.586;2024-03-25T14:58:38;3.43;;;1.77;;
14316;SDS011;7242;50.858;6.586;2024-03-25T15:01:44;4.20;;;1.73;;
14316;SDS011;7242;50.858;6.586;2024-03-25T15:04:45;3.77;;;1.70;;
14316;SDS011;7242;50.858;6.586;2024-03-25T15:07:48;5.73;;;1.70;;
14316;SDS011;7242;50.858;6.586;2024-03-25T15:10:55;2.80;;;1.67;;
14316;SDS011;7242;50.858;6.586;2024-03-25T15:13:56;3.70;;;1.70;;
14316;SDS011;7242;50.858;6.586;2024-03-25T15:16:58;4.43;;;1.90;;
14316;SDS011;7242;50.858;6.586;2024-03-25T15:20:00;3.73;;;2.20;;
14316;SDS011;7242;50.858;6.586;2024-03-25T15:23:05;3.43;;;2.03;;
14316;SDS011;7242;50.858;6.586;2024-03-25T15:26:07;2.93;;;1.70;;
14316;SDS011;7242;50.858;6.586;2024-03-25T15:29:11;4.97;;;1.77;;
14316;SDS011;7242;50.858;6.586;2024-03-25T15:32:12;4.87;;;1.80;;
14316;SDS011;7242;50.858;6.586;2024-03-25T15:35:14;3.03;;;1.80;;
14316;SDS011;7242;50.858;6.586;2024-03-25T15:38:19;5.33;;;1.93;;
14316;SDS011;7242;50.858;6.586;2024-03-25T15:41:20;4.87;;;2.13;;
14316;SDS011;7242;50.858;6.586;2024-03-25T15:44:22;4.03;;;1.90;;
14316;SDS011;7242;50.858;6.586;2024-03-25T15:47:24;3.77;;;1.90;;
14316;SDS011;7242;50.858;6.586;2024-03-25T15:50:25;3.07;;;1.80;;
14316;SDS011;7242;50.858;6.586;2024-03-25T15:53:27;3.50;;;1.90;;
14316;SDS011;7242;50.858;6.586;2024-03-25T15:56:31;3.20;;;1.97;;
14316;SDS011;7242;50.858;6.586;2024-03-25T15:59:34;4.50;;;2.10;;
14316;SDS011;7242;50.858;6.586;2024-03-25T16:02:36;4.10;;;2.07;;
14316;SDS011;7242;50.858;6.586;2024-03-25T16:05:38;5.27;;;1.93;;
14316;SDS011;7242;50.858;6.586;2024-03-25T16:08:41;2.97;;;1.60;;
14316;SDS011;7242;50.858;6.586;2024-03-25T16:11:42;3.20;;;1.80;;
14316;SDS011;7242;50.858;6.586;2024-03-25T16:14:45;5.20;;;1.80;;
14316;SDS011;7242;50.858;6.586;2024-03-25T16:17:49;4.47;;;2.07;;
14316;SDS011;7242;50.858;6.586;2024-03-25T16:20:53;3.07;;;1.43;;
14316;SDS011;7242;50.858;6.586;2024-03-25T16:23:54;2.47;;;1.63;;
14316;SDS011;7242;50.858;6.586;2024-03-25T16:26:56;3.27;;;1.67;;
14316;SDS011;7242;50.858;6.586;2024-03-25T16:29:58;3.90;;;1.50;;
14316;SDS011;7242;50.858;6.586;2024-03-25T16:33:04;3.43;;;1.70;;
14316;SDS011;7242;50.858;6.586;2024-03-25T16:36:07;2.50;;;1.60;;
14316;SDS011;7242;50.858;6.586;2024-03-25T16:39:15;4.90;;;2.10;;
14316;SDS011;7242;50.858;6.586;2024-03-25T16:42:17;4.53;;;1.77;;
14316;SDS011;7242;50.858;6.586;2024-03-25T16:45:18;3.37;;;1.53;;
14316;SDS011;7242;50.858;6.586;2024-03-25T16:48:20;3.50;;;1.80;;
14316;SDS011;7242;50.858;6.586;2024-03-25T16:51:22;4.20;;;1.80;;
14316;SDS011;7242;50.858;6.586;2024-03-25T16:54:30;3.63;;;2.10;;
14316;SDS011;7242;50.858;6.586;2024-03-25T16:57:39;4.27;;;1.80;;
14316;SDS011;7242;50.858;6.586;2024-03-25T17:00:43;2.87;;;1.57;;
14316;SDS011;7242;50.858;6.586;2024-03-25T17:03:50;3.37;;;1.90;;
14316;SDS011;7242;50.858;6.586;2024-03-25T17:06:51;2.70;;;1.60;;
14316;SDS011;7242;50.858;6.586;2024-03-25T17:09:53;3.43;;;2.00;;
14316;SDS011;7242;50.858;6.586;2024-03-25T17:12:55;3.67;;;1.70;;
14316;SDS011;7242;50.858;6.586;2024-03-25T17:15:57;3.70;;;1.87;;
14316;SDS011;7242;50.858;6.586;2024-03-25T17:18:58;2.90;;;1.50;;
14316;SDS011;7242;50.858;6.586;2024-03-25T17:22:01;2.67;;;1.40;;
14316;SDS011;7242;50.858;6.586;2024-03-25T17:25:04;3.17;;;1.67;;
14316;SDS011;7242;50.858;6.586;2024-03-25T17:28:06;4.63;;;1.90;;
14316;SDS011;7242;50.858;6.586;2024-03-25T17:31:10;3.57;;;2.13;;
14316;SDS011;7242;50.858;6.586;2024-03-25T17:34:13;3.43;;;1.90;;
14316;SDS011;7242;50.858;6.586;2024-03-25T17:37:14;3.80;;;1.73;;
14316;SDS011;7242;50.858;6.586;2024-03-25T17:40:19;5.33;;;1.90;;
14316;SDS011;7242;50.858;6.586;2024-03-25T17:43:20;4.80;;;1.70;;
14316;SDS011;7242;50.858;6.586;2024-03-25T17:46:25;3.53;;;1.83;;
14316;SDS011;7242;50.858;6.586;2024-03-25T17:49:27;3.23;;;1.60;;
14316;SDS011;7242;50.858;6.586;2024-03-25T17:52:28;3.23;;;1.60;;
14316;SDS011;7242;50.858;6.586;2024-03-25T17:55:30;3.23;;;1.60;;
14316;SDS011;7242;50.858;6.586;2024-03-25T17:58:31;3.87;;;1.43;;
14316;SDS011;7242;50.858;6.586;2024-03-25T18:01:34;2.17;;;1.40;;
14316;SDS011;7242;50.858;6.586;2024-03-25T18:04:36;3.87;;;1.23;;
14316;SDS011;7242;50.858;6.586;2024-03-25T18:07:40;3.60;;;1.40;;
14316;SDS011;7242;50.858;6.586;2024-03-25T18:10:44;5.07;;;1.60;;
14316;SDS011;7242;50.858;6.586;2024-03-25T18:13:45;2.47;;;1.43;;
14316;SDS011;7242;50.858;6.586;2024-03-25T18:16:47;4.37;;;1.70;;
14316;SDS011;7242;50.858;6.586;2024-03-25T18:19:48;6.03;;;1.60;;
14316;SDS011;7242;50.858;6.586;2024-03-25T18:22:54;3.47;;;1.73;;
14316;SDS011;7242;50.858;6.586;2024-03-25T18:25:58;4.60;;;1.80;;
14316;SDS011;7242;50.858;6.586;2024-03-25T18:29:03;4.50;;;2.10;;
14316;SDS011;7242;50.858;6.586;2024-03-25T18:32:04;2.67;;;1.77;;
14316;SDS011;7242;50.858;6.586;2024-03-25T18:35:09;3.33;;;1.80;;
14316;SDS011;7242;50.858;6.586;2024-03-25T18:38:11;2.23;;;1.53;;
14316;SDS011;7242;50.858;6.586;2024-03-25T18:41:14;5.13;;;2.20;;
14316;SDS011;7242;50.858;6.586;2024-03-25T18:44:17;2.77;;;1.83;;
14316;SDS011;7242;50.858;6.586;2024-03-25T18:47:19;3.67;;;1.67;;